sensor_id;sensor_type;location;lat;lon;timestamp;P1;durP1;ratioP1;P2;durP2;ratioP2
48987;SDS011;34799;51.440;-2.534;2023-04-16T00:01:34;6.07;;;3.15;;
48987;SDS011;34799;51.440;-2.534;2023-04-16T00:04:03;7.00;;;2.85;;
48987;SDS011;34799;51.440;-2.534;2023-04-16T00:06:30;6.72;;;3.13;;
48987;SDS011;34799;51.440;-2.534;2023-04-16T00:08:57;7.93;;;4.22;;
48987;SDS011;34799;51.440;-2.534;2023-04-16T00:11:24;5.78;;;3.38;;
48987;SDS011;34799;51.440;-2.534;2023-04-16T00:13:52;6.50;;;3.08;;
48987;SDS011;34799;51.440;-2.534;2023-04-16T00:16:19;9.55;;;3.83;;
48987;SDS011;34799;51.440;-2.534;2023-04-16T00:18:46;10.20;;;5.20;;
48987;SDS011;34799;51.440;-2.534;2023-04-16T00:21:14;10.45;;;4.65;;
48987;SDS011;34799;51.440;-2.534;2023-04-16T00:23:41;17.65;;;8.38;;
48987;SDS011;34799;51.440;-2.534;2023-04-16T00:26:08;16.65;;;7.15;;
48987;SDS011;34799;51.440;-2.534;2023-04-16T00:28:37;18.30;;;6.35;;
48987;SDS011;34799;51.440;-2.534;2023-04-16T00:31:04;13.13;;;4.90;;
48987;SDS011;34799;51.440;-2.534;2023-04-16T00:33:31;10.43;;;3.35;;
48987;SDS011;34799;51.440;-2.534;2023-04-16T00:36:00;8.32;;;4.05;;
48987;SDS011;34799;51.440;-2.534;2023-04-16T00:38:27;13.18;;;4.80;;
48987;SDS011;34799;51.440;-2.534;2023-04-16T00:40:55;9.13;;;4.38;;
48987;SDS011;34799;51.440;-2.534;2023-04-16T00:43:27;7.65;;;4.05;;
48987;SDS011;34799;51.440;-2.534;2023-04-16T00:45:55;7.05;;;3.45;;
48987;SDS011;34799;51.440;-2.534;2023-04-16T00:48:22;9.50;;;3.60;;
48987;SDS011;34799;51.440;-2.534;2023-04-16T00:50:50;8.10;;;3.08;;
48987;SDS011;34799;51.440;-2.534;2023-04-16T00:53:17;14.60;;;6.40;;
48987;SDS011;34799;51.440;-2.534;2023-04-16T00:55:44;18.17;;;7.07;;
48987;SDS011;34799;51.440;-2.534;2023-04-16T00:58:12;14.68;;;6.68;;
48987;SDS011;34799;51.440;-2.534;2023-04-16T01:00:39;22.27;;;8.88;;
48987;SDS011;34799;51.440;-2.534;2023-04-16T01:03:07;18.10;;;7.03;;
48987;SDS011;34799;51.440;-2.534;2023-04-16T01:05:35;7.43;;;3.38;;
48987;SDS011;34799;51.440;-2.534;2023-04-16T01:08:02;7.72;;;2.40;;
48987;SDS011;34799;51.440;-2.534;2023-04-16T01:10:31;7.25;;;2.28;;
48987;SDS011;34799;51.440;-2.534;2023-04-16T01:12:59;7.68;;;3.08;;
48987;SDS011;34799;51.440;-2.534;2023-04-16T01:15:26;11.95;;;4.68;;
48987;SDS011;34799;51.440;-2.534;2023-04-16T01:17:53;6.20;;;3.15;;
48987;SDS011;34799;51.440;-2.534;2023-04-16T01:20:20;9.77;;;3.20;;
48987;SDS011;34799;51.440;-2.534;2023-04-16T01:22:47;10.95;;;4.00;;
48987;SDS011;34799;51.440;-2.534;2023-04-16T01:25:14;6.53;;;3.70;;
48987;SDS011;34799;51.440;-2.534;2023-04-16T01:27:43;9.32;;;4.00;;
48987;SDS011;34799;51.440;-2.534;2023-04-16T01:30:11;9.50;;;4.47;;
48987;SDS011;34799;51.440;-2.534;2023-04-16T01:32:48;12.85;;;5.30;;
48987;SDS011;34799;51.440;-2.534;2023-04-16T01:35:16;13.63;;;5.32;;
48987;SDS011;34799;51.440;-2.534;2023-04-16T01:37:47;14.18;;;5.63;;
48987;SDS011;34799;51.440;-2.534;2023-04-16T01:40:15;12.88;;;5.32;;
48987;SDS011;34799;51.440;-2.534;2023-04-16T01:42:43;12.18;;;5.20;;
48987;SDS011;34799;51.440;-2.534;2023-04-16T01:45:10;12.18;;;5.07;;
48987;SDS011;34799;51.440;-2.534;2023-04-16T01:47:39;15.02;;;6.20;;
48987;SDS011;34799;51.440;-2.534;2023-04-16T01:50:06;10.20;;;4.43;;
48987;SDS011;34799;51.440;-2.534;2023-04-16T01:52:34;11.75;;;4.30;;
48987;SDS011;34799;51.440;-2.534;2023-04-16T01:55:02;8.00;;;3.17;;
48987;SDS011;34799;51.440;-2.534;2023-04-16T01:57:30;10.60;;;3.30;;
48987;SDS011;34799;51.440;-2.534;2023-04-16T01:59:57;10.93;;;3.53;;
48987;SDS011;34799;51.440;-2.534;2023-04-16T02:02:25;9.77;;;3.72;;
48987;SDS011;34799;51.440;-2.534;2023-04-16T02:04:54;8.30;;;3.83;;
48987;SDS011;34799;51.440;-2.534;2023-04-16T02:07:26;9.85;;;3.47;;
48987;SDS011;34799;51.440;-2.534;2023-04-16T02:09:53;7.05;;;2.90;;
48987;SDS011;34799;51.440;-2.534;2023-04-16T02:12:20;7.82;;;3.22;;
48987;SDS011;34799;51.440;-2.534;2023-04-16T02:14:47;8.55;;;3.60;;
48987;SDS011;34799;51.440;-2.534;2023-04-16T02:17:16;6.85;;;3.17;;
48987;SDS011;34799;51.440;-2.534;2023-04-16T02:23:15;9.43;;;3.33;;
48987;SDS011;34799;51.440;-2.534;2023-04-16T02:25:45;6.72;;;3.10;;
48987;SDS011;34799;51.440;-2.534;2023-04-16T02:28:14;7.45;;;2.67;;
48987;SDS011;34799;51.440;-2.534;2023-04-16T02:30:44;6.03;;;3.40;;
48987;SDS011;34799;51.440;-2.534;2023-04-16T02:33:14;4.72;;;2.42;;
48987;SDS011;34799;51.440;-2.534;2023-04-16T02:35:51;6.82;;;2.75;;
48987;SDS011;34799;51.440;-2.534;2023-04-16T02:38:18;4.55;;;2.55;;
48987;SDS011;34799;51.440;-2.534;2023-04-16T02:40:46;5.93;;;2.90;;
48987;SDS011;34799;51.440;-2.534;2023-04-16T02:43:15;5.55;;;3.03;;
48987;SDS011;34799;51.440;-2.534;2023-04-16T02:45:42;5.85;;;2.83;;
48987;SDS011;34799;51.440;-2.534;2023-04-16T02:48:10;6.78;;;2.90;;
48987;SDS011;34799;51.440;-2.534;2023-04-16T02:50:37;6.88;;;2.67;;
48987;SDS011;34799;51.440;-2.534;2023-04-16T02:53:04;6.25;;;2.33;;
48987;SDS011;34799;51.440;-2.534;2023-04-16T02:55:34;4.32;;;1.98;;
48987;SDS011;34799;51.440;-2.534;2023-04-16T02:58:02;8.48;;;2.42;;
48987;SDS011;34799;51.440;-2.534;2023-04-16T03:00:28;5.85;;;2.30;;
48987;SDS011;34799;51.440;-2.534;2023-04-16T03:02:56;7.18;;;2.22;;
48987;SDS011;34799;51.440;-2.534;2023-04-16T03:05:23;8.30;;;2.40;;
48987;SDS011;34799;51.440;-2.534;2023-04-16T03:07:50;15.30;;;3.15;;
48987;SDS011;34799;51.440;-2.534;2023-04-16T03:10:21;7.55;;;2.60;;
48987;SDS011;34799;51.440;-2.534;2023-04-16T03:12:49;11.05;;;2.50;;
48987;SDS011;34799;51.440;-2.534;2023-04-16T03:15:16;11.07;;;2.85;;
48987;SDS011;34799;51.440;-2.534;2023-04-16T03:17:44;8.52;;;2.67;;
48987;SDS011;34799;51.440;-2.534;2023-04-16T03:20:11;7.68;;;2.40;;
48987;SDS011;34799;51.440;-2.534;2023-04-16T03:22:40;8.95;;;2.35;;
48987;SDS011;34799;51.440;-2.534;2023-04-16T03:25:07;7.28;;;2.47;;
48987;SDS011;34799;51.440;-2.534;2023-04-16T03:27:35;7.57;;;2.53;;
48987;SDS011;34799;51.440;-2.534;2023-04-16T03:30:02;8.45;;;2.92;;
48987;SDS011;34799;51.440;-2.534;2023-04-16T03:32:33;10.07;;;3.53;;
48987;SDS011;34799;51.440;-2.534;2023-04-16T03:35:02;10.93;;;2.97;;
48987;SDS011;34799;51.440;-2.534;2023-04-16T03:37:30;6.78;;;2.47;;
48987;SDS011;34799;51.440;-2.534;2023-04-16T03:39:57;4.53;;;2.35;;
48987;SDS011;34799;51.440;-2.534;2023-04-16T03:42:26;8.55;;;2.67;;
48987;SDS011;34799;51.440;-2.534;2023-04-16T03:44:55;8.32;;;2.70;;
48987;SDS011;34799;51.440;-2.534;2023-04-16T03:47:23;10.07;;;3.03;;
48987;SDS011;34799;51.440;-2.534;2023-04-16T03:49:53;11.85;;;3.25;;
48987;SDS011;34799;51.440;-2.534;2023-04-16T03:52:21;7.07;;;2.72;;
48987;SDS011;34799;51.440;-2.534;2023-04-16T03:54:48;5.72;;;2.58;;
48987;SDS011;34799;51.440;-2.534;2023-04-16T03:57:22;8.77;;;3.13;;
48987;SDS011;34799;51.440;-2.534;2023-04-16T03:59:49;7.68;;;2.55;;
48987;SDS011;34799;51.440;-2.534;2023-04-16T04:02:17;4.45;;;2.40;;
48987;SDS011;34799;51.440;-2.534;2023-04-16T04:04:44;6.47;;;2.42;;
48987;SDS011;34799;51.440;-2.534;2023-04-16T04:07:11;9.57;;;2.28;;
48987;SDS011;34799;51.440;-2.534;2023-04-16T04:09:38;8.40;;;3.00;;
48987;SDS011;34799;51.440;-2.534;2023-04-16T04:12:06;6.50;;;2.45;;
48987;SDS011;34799;51.440;-2.534;2023-04-16T04:14:36;6.05;;;3.00;;
48987;SDS011;34799;51.440;-2.534;2023-04-16T04:17:07;11.07;;;2.47;;
48987;SDS011;34799;51.440;-2.534;2023-04-16T04:19:35;5.38;;;2.20;;
48987;SDS011;34799;51.440;-2.534;2023-04-16T04:22:02;5.60;;;2.08;;
48987;SDS011;34799;51.440;-2.534;2023-04-16T04:24:29;5.43;;;2.03;;
48987;SDS011;34799;51.440;-2.534;2023-04-16T04:26:57;6.28;;;2.22;;
48987;SDS011;34799;51.440;-2.534;2023-04-16T04:29:24;5.28;;;2.13;;
48987;SDS011;34799;51.440;-2.534;2023-04-16T04:31:51;7.85;;;2.40;;
48987;SDS011;34799;51.440;-2.534;2023-04-16T04:34:21;4.85;;;1.88;;
48987;SDS011;34799;51.440;-2.534;2023-04-16T04:36:48;9.20;;;2.60;;
48987;SDS011;34799;51.440;-2.534;2023-04-16T04:39:15;5.78;;;1.90;;
48987;SDS011;34799;51.440;-2.534;2023-04-16T04:41:42;4.80;;;1.92;;
48987;SDS011;34799;51.440;-2.534;2023-04-16T04:44:09;4.10;;;2.30;;
48987;SDS011;34799;51.440;-2.534;2023-04-16T04:46:36;5.40;;;2.30;;
48987;SDS011;34799;51.440;-2.534;2023-04-16T04:49:05;6.88;;;2.80;;
48987;SDS011;34799;51.440;-2.534;2023-04-16T04:51:32;5.18;;;2.58;;
48987;SDS011;34799;51.440;-2.534;2023-04-16T04:54:00;5.03;;;2.33;;
48987;SDS011;34799;51.440;-2.534;2023-04-16T04:56:27;7.30;;;2.78;;
48987;SDS011;34799;51.440;-2.534;2023-04-16T04:58:54;6.13;;;2.42;;
48987;SDS011;34799;51.440;-2.534;2023-04-16T05:01:21;6.78;;;3.33;;
48987;SDS011;34799;51.440;-2.534;2023-04-16T05:03:48;5.70;;;3.00;;
48987;SDS011;34799;51.440;-2.534;2023-04-16T05:06:17;4.22;;;2.50;;
48987;SDS011;34799;51.440;-2.534;2023-04-16T05:08:44;5.70;;;2.72;;
48987;SDS011;34799;51.440;-2.534;2023-04-16T05:11:11;7.03;;;2.97;;
48987;SDS011;34799;51.440;-2.534;2023-04-16T05:13:38;10.88;;;2.80;;
48987;SDS011;34799;51.440;-2.534;2023-04-16T05:16:05;5.80;;;2.92;;
48987;SDS011;34799;51.440;-2.534;2023-04-16T05:18:32;6.55;;;3.15;;
48987;SDS011;34799;51.440;-2.534;2023-04-16T05:20:59;6.55;;;2.42;;
48987;SDS011;34799;51.440;-2.534;2023-04-16T05:23:26;5.05;;;2.60;;
48987;SDS011;34799;51.440;-2.534;2023-04-16T05:25:54;6.18;;;2.97;;
48987;SDS011;34799;51.440;-2.534;2023-04-16T05:28:22;8.23;;;2.85;;
48987;SDS011;34799;51.440;-2.534;2023-04-16T05:30:49;6.82;;;2.30;;
48987;SDS011;34799;51.440;-2.534;2023-04-16T05:33:16;6.55;;;2.78;;
48987;SDS011;34799;51.440;-2.534;2023-04-16T05:35:43;3.63;;;2.10;;
48987;SDS011;34799;51.440;-2.534;2023-04-16T05:38:10;5.40;;;2.55;;
48987;SDS011;34799;51.440;-2.534;2023-04-16T05:40:37;7.88;;;2.97;;
48987;SDS011;34799;51.440;-2.534;2023-04-16T05:43:06;6.85;;;2.45;;
48987;SDS011;34799;51.440;-2.534;2023-04-16T05:45:33;8.18;;;2.67;;
48987;SDS011;34799;51.440;-2.534;2023-04-16T05:48:07;8.13;;;2.90;;
48987;SDS011;34799;51.440;-2.534;2023-04-16T05:54:06;5.25;;;2.65;;
48987;SDS011;34799;51.440;-2.534;2023-04-16T05:56:32;6.82;;;2.45;;
48987;SDS011;34799;51.440;-2.534;2023-04-16T05:58:59;6.07;;;3.15;;
48987;SDS011;34799;51.440;-2.534;2023-04-16T06:01:26;6.35;;;2.92;;
48987;SDS011;34799;51.440;-2.534;2023-04-16T06:03:53;6.75;;;2.63;;
48987;SDS011;34799;51.440;-2.534;2023-04-16T06:06:21;9.25;;;2.92;;
48987;SDS011;34799;51.440;-2.534;2023-04-16T06:08:49;8.07;;;3.97;;
48987;SDS011;34799;51.440;-2.534;2023-04-16T06:11:16;5.72;;;2.85;;
48987;SDS011;34799;51.440;-2.534;2023-04-16T06:13:43;4.60;;;2.75;;
48987;SDS011;34799;51.440;-2.534;2023-04-16T06:16:10;6.60;;;3.33;;
48987;SDS011;34799;51.440;-2.534;2023-04-16T06:18:37;6.28;;;2.47;;
48987;SDS011;34799;51.440;-2.534;2023-04-16T06:21:04;5.18;;;2.70;;
48987;SDS011;34799;51.440;-2.534;2023-04-16T06:23:31;6.38;;;2.80;;
48987;SDS011;34799;51.440;-2.534;2023-04-16T06:25:58;6.80;;;2.67;;
48987;SDS011;34799;51.440;-2.534;2023-04-16T06:28:27;7.25;;;2.20;;
48987;SDS011;34799;51.440;-2.534;2023-04-16T06:30:54;5.53;;;2.70;;
48987;SDS011;34799;51.440;-2.534;2023-04-16T06:33:21;6.35;;;2.60;;
48987;SDS011;34799;51.440;-2.534;2023-04-16T06:35:49;6.32;;;2.35;;
48987;SDS011;34799;51.440;-2.534;2023-04-16T06:38:16;9.07;;;3.17;;
48987;SDS011;34799;51.440;-2.534;2023-04-16T06:40:43;7.10;;;4.18;;
48987;SDS011;34799;51.440;-2.534;2023-04-16T06:43:10;15.88;;;8.55;;
48987;SDS011;34799;51.440;-2.534;2023-04-16T06:45:38;11.73;;;7.82;;
48987;SDS011;34799;51.440;-2.534;2023-04-16T06:48:06;4.82;;;3.30;;
48987;SDS011;34799;51.440;-2.534;2023-04-16T06:50:32;8.75;;;4.40;;
48987;SDS011;34799;51.440;-2.534;2023-04-16T06:52:59;10.13;;;4.00;;
48987;SDS011;34799;51.440;-2.534;2023-04-16T06:55:26;5.95;;;2.88;;
48987;SDS011;34799;51.440;-2.534;2023-04-16T06:57:53;6.07;;;3.08;;
48987;SDS011;34799;51.440;-2.534;2023-04-16T07:00:20;6.68;;;3.15;;
48987;SDS011;34799;51.440;-2.534;2023-04-16T07:02:47;5.68;;;2.75;;
48987;SDS011;34799;51.440;-2.534;2023-04-16T07:05:16;5.00;;;2.80;;
48987;SDS011;34799;51.440;-2.534;2023-04-16T07:07:43;6.93;;;3.03;;
48987;SDS011;34799;51.440;-2.534;2023-04-16T07:10:10;5.32;;;2.53;;
48987;SDS011;34799;51.440;-2.534;2023-04-16T07:12:37;6.13;;;3.03;;
48987;SDS011;34799;51.440;-2.534;2023-04-16T07:15:05;6.00;;;2.53;;
48987;SDS011;34799;51.440;-2.534;2023-04-16T07:17:32;7.75;;;2.90;;
48987;SDS011;34799;51.440;-2.534;2023-04-16T07:20:01;7.43;;;2.95;;
48987;SDS011;34799;51.440;-2.534;2023-04-16T07:22:29;5.88;;;2.70;;
48987;SDS011;34799;51.440;-2.534;2023-04-16T07:24:56;6.50;;;2.45;;
48987;SDS011;34799;51.440;-2.534;2023-04-16T07:27:23;6.60;;;2.72;;
48987;SDS011;34799;51.440;-2.534;2023-04-16T07:29:50;6.30;;;3.13;;
48987;SDS011;34799;51.440;-2.534;2023-04-16T07:32:17;5.95;;;3.05;;
48987;SDS011;34799;51.440;-2.534;2023-04-16T07:34:45;6.85;;;2.72;;
48987;SDS011;34799;51.440;-2.534;2023-04-16T07:37:12;7.30;;;2.97;;
48987;SDS011;34799;51.440;-2.534;2023-04-16T07:39:41;7.30;;;2.95;;
48987;SDS011;34799;51.440;-2.534;2023-04-16T07:42:07;9.07;;;3.00;;
48987;SDS011;34799;51.440;-2.534;2023-04-16T07:44:35;8.82;;;3.42;;
48987;SDS011;34799;51.440;-2.534;2023-04-16T07:47:02;7.30;;;3.05;;
48987;SDS011;34799;51.440;-2.534;2023-04-16T07:49:30;7.13;;;2.80;;
48987;SDS011;34799;51.440;-2.534;2023-04-16T07:51:57;6.65;;;3.13;;
48987;SDS011;34799;51.440;-2.534;2023-04-16T07:54:26;12.52;;;3.70;;
48987;SDS011;34799;51.440;-2.534;2023-04-16T07:56:54;9.93;;;2.95;;
48987;SDS011;34799;51.440;-2.534;2023-04-16T07:59:21;4.30;;;2.55;;
48987;SDS011;34799;51.440;-2.534;2023-04-16T08:01:49;6.65;;;2.83;;
48987;SDS011;34799;51.440;-2.534;2023-04-16T08:04:18;6.95;;;2.53;;
48987;SDS011;34799;51.440;-2.534;2023-04-16T08:06:50;8.05;;;3.28;;
48987;SDS011;34799;51.440;-2.534;2023-04-16T08:09:21;5.53;;;1.95;;
48987;SDS011;34799;51.440;-2.534;2023-04-16T08:11:49;4.45;;;1.23;;
48987;SDS011;34799;51.440;-2.534;2023-04-16T08:14:16;1.25;;;0.40;;
48987;SDS011;34799;51.440;-2.534;2023-04-16T08:16:43;2.95;;;0.40;;
48987;SDS011;34799;51.440;-2.534;2023-04-16T08:19:10;1.65;;;0.30;;
48987;SDS011;34799;51.440;-2.534;2023-04-16T08:21:37;2.63;;;0.50;;
48987;SDS011;34799;51.440;-2.534;2023-04-16T08:24:04;4.00;;;0.45;;
48987;SDS011;34799;51.440;-2.534;2023-04-16T08:26:33;3.05;;;0.77;;
48987;SDS011;34799;51.440;-2.534;2023-04-16T08:29:01;5.95;;;0.45;;
48987;SDS011;34799;51.440;-2.534;2023-04-16T08:31:28;3.10;;;0.32;;
48987;SDS011;34799;51.440;-2.534;2023-04-16T08:33:55;5.78;;;0.30;;
48987;SDS011;34799;51.440;-2.534;2023-04-16T08:36:22;3.65;;;0.45;;
48987;SDS011;34799;51.440;-2.534;2023-04-16T08:38:49;2.90;;;0.60;;
48987;SDS011;34799;51.440;-2.534;2023-04-16T08:41:17;2.55;;;0.63;;
48987;SDS011;34799;51.440;-2.534;2023-04-16T08:43:47;3.30;;;0.50;;
48987;SDS011;34799;51.440;-2.534;2023-04-16T08:46:17;2.13;;;0.68;;
48987;SDS011;34799;51.440;-2.534;2023-04-16T08:48:49;5.32;;;0.57;;
48987;SDS011;34799;51.440;-2.534;2023-04-16T08:51:21;2.03;;;0.30;;
48987;SDS011;34799;51.440;-2.534;2023-04-16T08:53:53;2.35;;;0.35;;
48987;SDS011;34799;51.440;-2.534;2023-04-16T08:56:28;2.70;;;0.40;;
48987;SDS011;34799;51.440;-2.534;2023-04-16T08:58:59;4.80;;;0.60;;
48987;SDS011;34799;51.440;-2.534;2023-04-16T09:01:34;4.50;;;0.65;;
48987;SDS011;34799;51.440;-2.534;2023-04-16T09:04:01;5.10;;;0.77;;
48987;SDS011;34799;51.440;-2.534;2023-04-16T09:06:29;4.03;;;0.45;;
48987;SDS011;34799;51.440;-2.534;2023-04-16T09:08:56;3.53;;;0.80;;
48987;SDS011;34799;51.440;-2.534;2023-04-16T09:11:27;2.65;;;0.50;;
48987;SDS011;34799;51.440;-2.534;2023-04-16T09:13:54;2.90;;;0.50;;
48987;SDS011;34799;51.440;-2.534;2023-04-16T09:16:22;5.40;;;0.60;;
48987;SDS011;34799;51.440;-2.534;2023-04-16T09:18:50;6.63;;;1.95;;
48987;SDS011;34799;51.440;-2.534;2023-04-16T09:21:17;6.25;;;0.93;;
48987;SDS011;34799;51.440;-2.534;2023-04-16T09:23:48;19.63;;;6.78;;
48987;SDS011;34799;51.440;-2.534;2023-04-16T09:26:15;21.30;;;7.22;;
48987;SDS011;34799;51.440;-2.534;2023-04-16T09:28:43;7.43;;;1.98;;
48987;SDS011;34799;51.440;-2.534;2023-04-16T09:31:12;5.55;;;1.15;;
48987;SDS011;34799;51.440;-2.534;2023-04-16T09:33:41;4.80;;;0.60;;
48987;SDS011;34799;51.440;-2.534;2023-04-16T09:36:09;5.00;;;0.63;;
48987;SDS011;34799;51.440;-2.534;2023-04-16T09:38:50;2.90;;;0.60;;
48987;SDS011;34799;51.440;-2.534;2023-04-16T09:41:19;6.20;;;0.50;;
48987;SDS011;34799;51.440;-2.534;2023-04-16T09:48:55;3.13;;;0.40;;
48987;SDS011;34799;51.440;-2.534;2023-04-16T09:51:22;4.75;;;0.50;;
48987;SDS011;34799;51.440;-2.534;2023-04-16T09:53:52;5.40;;;1.02;;
48987;SDS011;34799;51.440;-2.534;2023-04-16T09:56:24;4.40;;;1.30;;
48987;SDS011;34799;51.440;-2.534;2023-04-16T09:59:01;2.08;;;0.68;;
48987;SDS011;34799;51.440;-2.534;2023-04-16T10:01:27;4.18;;;0.40;;
48987;SDS011;34799;51.440;-2.534;2023-04-16T10:03:57;3.20;;;0.28;;
48987;SDS011;34799;51.440;-2.534;2023-04-16T10:06:24;3.13;;;0.40;;
48987;SDS011;34799;51.440;-2.534;2023-04-16T10:08:54;5.75;;;0.50;;
48987;SDS011;34799;51.440;-2.534;2023-04-16T10:11:25;4.07;;;1.70;;
48987;SDS011;34799;51.440;-2.534;2023-04-16T10:13:52;3.80;;;1.00;;
48987;SDS011;34799;51.440;-2.534;2023-04-16T10:16:19;5.15;;;0.30;;
48987;SDS011;34799;51.440;-2.534;2023-04-16T10:18:48;10.55;;;4.65;;
48987;SDS011;34799;51.440;-2.534;2023-04-16T10:21:15;5.95;;;2.20;;
48987;SDS011;34799;51.440;-2.534;2023-04-16T10:23:42;4.40;;;1.55;;
48987;SDS011;34799;51.440;-2.534;2023-04-16T10:26:11;3.65;;;0.93;;
48987;SDS011;34799;51.440;-2.534;2023-04-16T10:28:38;1.58;;;0.30;;
48987;SDS011;34799;51.440;-2.534;2023-04-16T10:31:07;4.05;;;0.30;;
48987;SDS011;34799;51.440;-2.534;2023-04-16T10:33:40;5.07;;;0.70;;
48987;SDS011;34799;51.440;-2.534;2023-04-16T10:38:37;5.65;;;0.60;;
48987;SDS011;34799;51.440;-2.534;2023-04-16T10:41:06;3.90;;;1.20;;
48987;SDS011;34799;51.440;-2.534;2023-04-16T10:43:38;2.95;;;0.40;;
48987;SDS011;34799;51.440;-2.534;2023-04-16T10:46:19;3.22;;;0.77;;
48987;SDS011;34799;51.440;-2.534;2023-04-16T10:48:49;2.78;;;0.40;;
48987;SDS011;34799;51.440;-2.534;2023-04-16T10:51:23;2.63;;;0.50;;
48987;SDS011;34799;51.440;-2.534;2023-04-16T10:53:50;12.90;;;3.40;;
48987;SDS011;34799;51.440;-2.534;2023-04-16T10:56:21;15.95;;;3.55;;
48987;SDS011;34799;51.440;-2.534;2023-04-16T10:58:54;5.93;;;1.83;;
48987;SDS011;34799;51.440;-2.534;2023-04-16T11:01:34;4.88;;;1.02;;
48987;SDS011;34799;51.440;-2.534;2023-04-16T11:07:02;9.52;;;4.03;;
48987;SDS011;34799;51.440;-2.534;2023-04-16T11:12:13;21.35;;;8.18;;
48987;SDS011;34799;51.440;-2.534;2023-04-16T11:14:51;23.77;;;11.90;;
48987;SDS011;34799;51.440;-2.534;2023-04-16T11:17:20;16.55;;;9.90;;
48987;SDS011;34799;51.440;-2.534;2023-04-16T11:19:48;22.35;;;9.93;;
48987;SDS011;34799;51.440;-2.534;2023-04-16T11:22:16;17.15;;;6.85;;
48987;SDS011;34799;51.440;-2.534;2023-04-16T11:24:44;6.55;;;3.97;;
48987;SDS011;34799;51.440;-2.534;2023-04-16T11:27:13;15.40;;;7.43;;
48987;SDS011;34799;51.440;-2.534;2023-04-16T11:29:41;7.07;;;4.20;;
48987;SDS011;34799;51.440;-2.534;2023-04-16T11:32:09;6.20;;;3.90;;
48987;SDS011;34799;51.440;-2.534;2023-04-16T11:34:43;6.97;;;2.10;;
48987;SDS011;34799;51.440;-2.534;2023-04-16T11:37:11;6.22;;;0.90;;
48987;SDS011;34799;51.440;-2.534;2023-04-16T11:39:48;4.50;;;0.80;;
48987;SDS011;34799;51.440;-2.534;2023-04-16T11:42:19;3.72;;;0.50;;
48987;SDS011;34799;51.440;-2.534;2023-04-16T11:44:52;5.93;;;0.50;;
48987;SDS011;34799;51.440;-2.534;2023-04-16T11:47:20;4.90;;;0.70;;
48987;SDS011;34799;51.440;-2.534;2023-04-16T11:49:50;4.53;;;0.50;;
48987;SDS011;34799;51.440;-2.534;2023-04-16T11:52:25;6.90;;;1.98;;
48987;SDS011;34799;51.440;-2.534;2023-04-16T11:54:57;5.28;;;2.13;;
48987;SDS011;34799;51.440;-2.534;2023-04-16T11:57:25;2.88;;;1.95;;
48987;SDS011;34799;51.440;-2.534;2023-04-16T11:59:57;5.25;;;1.15;;
48987;SDS011;34799;51.440;-2.534;2023-04-16T12:07:29;2.63;;;0.80;;
48987;SDS011;34799;51.440;-2.534;2023-04-16T12:10:07;3.88;;;0.85;;
48987;SDS011;34799;51.440;-2.534;2023-04-16T12:12:34;5.30;;;0.50;;
48987;SDS011;34799;51.440;-2.534;2023-04-16T12:15:01;4.43;;;0.60;;
48987;SDS011;34799;51.440;-2.534;2023-04-16T12:17:31;6.00;;;0.80;;
48987;SDS011;34799;51.440;-2.534;2023-04-16T12:20:02;2.17;;;0.43;;
48987;SDS011;34799;51.440;-2.534;2023-04-16T12:22:36;3.63;;;0.50;;
48987;SDS011;34799;51.440;-2.534;2023-04-16T12:25:12;7.78;;;0.85;;
48987;SDS011;34799;51.440;-2.534;2023-04-16T12:27:47;4.18;;;0.70;;
48987;SDS011;34799;51.440;-2.534;2023-04-16T12:30:22;4.68;;;0.60;;
48987;SDS011;34799;51.440;-2.534;2023-04-16T12:32:51;5.07;;;0.65;;
48987;SDS011;34799;51.440;-2.534;2023-04-16T12:35:37;5.82;;;0.60;;
48987;SDS011;34799;51.440;-2.534;2023-04-16T12:38:04;4.97;;;0.70;;
48987;SDS011;34799;51.440;-2.534;2023-04-16T12:40:31;9.48;;;1.13;;
48987;SDS011;34799;51.440;-2.534;2023-04-16T12:43:00;4.05;;;0.70;;
48987;SDS011;34799;51.440;-2.534;2023-04-16T12:45:27;5.82;;;0.73;;
48987;SDS011;34799;51.440;-2.534;2023-04-16T12:47:54;6.30;;;1.20;;
48987;SDS011;34799;51.440;-2.534;2023-04-16T12:50:21;4.05;;;0.43;;
48987;SDS011;34799;51.440;-2.534;2023-04-16T12:52:48;4.03;;;0.47;;
48987;SDS011;34799;51.440;-2.534;2023-04-16T12:55:15;7.93;;;0.90;;
48987;SDS011;34799;51.440;-2.534;2023-04-16T12:57:43;3.65;;;0.60;;
48987;SDS011;34799;51.440;-2.534;2023-04-16T13:00:10;5.90;;;0.52;;
48987;SDS011;34799;51.440;-2.534;2023-04-16T13:02:40;6.68;;;0.77;;
48987;SDS011;34799;51.440;-2.534;2023-04-16T13:05:07;4.40;;;0.70;;
48987;SDS011;34799;51.440;-2.534;2023-04-16T13:07:34;2.17;;;0.50;;
48987;SDS011;34799;51.440;-2.534;2023-04-16T13:10:01;4.03;;;0.70;;
48987;SDS011;34799;51.440;-2.534;2023-04-16T13:12:30;5.22;;;0.50;;
48987;SDS011;34799;51.440;-2.534;2023-04-16T13:14:58;3.65;;;0.73;;
48987;SDS011;34799;51.440;-2.534;2023-04-16T13:17:25;6.30;;;0.80;;
48987;SDS011;34799;51.440;-2.534;2023-04-16T13:19:52;7.75;;;1.00;;
48987;SDS011;34799;51.440;-2.534;2023-04-16T13:22:19;6.00;;;1.05;;
48987;SDS011;34799;51.440;-2.534;2023-04-16T13:24:46;7.85;;;0.98;;
48987;SDS011;34799;51.440;-2.534;2023-04-16T13:27:13;5.03;;;1.25;;
48987;SDS011;34799;51.440;-2.534;2023-04-16T13:29:42;8.05;;;0.90;;
48987;SDS011;34799;51.440;-2.534;2023-04-16T13:32:10;4.38;;;1.30;;
48987;SDS011;34799;51.440;-2.534;2023-04-16T13:34:39;4.07;;;0.70;;
48987;SDS011;34799;51.440;-2.534;2023-04-16T13:37:06;6.30;;;0.70;;
48987;SDS011;34799;51.440;-2.534;2023-04-16T13:39:33;2.30;;;0.73;;
48987;SDS011;34799;51.440;-2.534;2023-04-16T13:42:01;6.25;;;0.93;;
48987;SDS011;34799;51.440;-2.534;2023-04-16T13:44:28;3.25;;;0.70;;
48987;SDS011;34799;51.440;-2.534;2023-04-16T13:46:56;6.10;;;0.80;;
48987;SDS011;34799;51.440;-2.534;2023-04-16T13:49:23;6.93;;;1.23;;
48987;SDS011;34799;51.440;-2.534;2023-04-16T13:51:50;5.85;;;1.00;;
48987;SDS011;34799;51.440;-2.534;2023-04-16T13:54:17;6.43;;;0.80;;
48987;SDS011;34799;51.440;-2.534;2023-04-16T13:56:44;5.00;;;0.90;;
48987;SDS011;34799;51.440;-2.534;2023-04-16T13:59:11;2.28;;;0.65;;
48987;SDS011;34799;51.440;-2.534;2023-04-16T14:01:39;5.18;;;1.08;;
48987;SDS011;34799;51.440;-2.534;2023-04-16T14:04:07;3.22;;;1.13;;
48987;SDS011;34799;51.440;-2.534;2023-04-16T14:06:34;7.85;;;1.52;;
48987;SDS011;34799;51.440;-2.534;2023-04-16T14:09:01;5.00;;;2.10;;
48987;SDS011;34799;51.440;-2.534;2023-04-16T14:11:28;6.93;;;1.50;;
48987;SDS011;34799;51.440;-2.534;2023-04-16T14:13:55;9.70;;;2.13;;
48987;SDS011;34799;51.440;-2.534;2023-04-16T14:16:22;7.25;;;1.92;;
48987;SDS011;34799;51.440;-2.534;2023-04-16T14:18:51;8.32;;;1.80;;
48987;SDS011;34799;51.440;-2.534;2023-04-16T14:21:18;4.80;;;1.63;;
48987;SDS011;34799;51.440;-2.534;2023-04-16T14:23:46;6.53;;;1.35;;
48987;SDS011;34799;51.440;-2.534;2023-04-16T14:26:13;7.95;;;1.90;;
48987;SDS011;34799;51.440;-2.534;2023-04-16T14:28:40;6.30;;;1.33;;
48987;SDS011;34799;51.440;-2.534;2023-04-16T14:31:07;10.10;;;1.85;;
48987;SDS011;34799;51.440;-2.534;2023-04-16T14:33:34;7.50;;;2.00;;
48987;SDS011;34799;51.440;-2.534;2023-04-16T14:36:03;3.83;;;1.35;;
48987;SDS011;34799;51.440;-2.534;2023-04-16T14:38:31;6.55;;;1.75;;
48987;SDS011;34799;51.440;-2.534;2023-04-16T14:40:58;8.18;;;1.40;;
48987;SDS011;34799;51.440;-2.534;2023-04-16T14:43:25;3.40;;;1.70;;
48987;SDS011;34799;51.440;-2.534;2023-04-16T14:45:52;8.68;;;1.85;;
48987;SDS011;34799;51.440;-2.534;2023-04-16T14:48:19;5.72;;;1.80;;
48987;SDS011;34799;51.440;-2.534;2023-04-16T14:50:49;8.35;;;1.90;;
48987;SDS011;34799;51.440;-2.534;2023-04-16T14:53:16;13.05;;;1.42;;
48987;SDS011;34799;51.440;-2.534;2023-04-16T14:55:44;7.38;;;1.25;;
48987;SDS011;34799;51.440;-2.534;2023-04-16T14:58:11;3.88;;;0.70;;
48987;SDS011;34799;51.440;-2.534;2023-04-16T15:00:38;5.55;;;0.80;;
48987;SDS011;34799;51.440;-2.534;2023-04-16T15:03:06;7.18;;;1.27;;
48987;SDS011;34799;51.440;-2.534;2023-04-16T15:05:33;7.65;;;1.05;;